createdAt,value
2018-02-21T00:00:19.636Z,8.1
2018-02-21T00:01:22.332Z,8.6
2018-02-21T00:02:25.344Z,7.9
2018-02-21T00:03:28.181Z,8.2
2018-02-21T00:04:31.243Z,7.5
2018-02-21T00:05:34.065Z,7.6
2018-02-21T00:06:36.896Z,7.6
2018-02-21T00:07:40.190Z,7.4
2018-02-21T00:08:42.797Z,7.6
2018-02-21T00:09:45.556Z,7.4
2018-02-21T00:10:48.273Z,7.6
2018-02-21T00:11:51.189Z,7.4
2018-02-21T00:12:54.458Z,6.9
2018-02-21T00:13:57.153Z,7
2018-02-21T00:14:59.884Z,7.3
2018-02-21T00:16:02.718Z,7.1
2018-02-21T00:17:05.756Z,7.2
2018-02-21T00:18:08.759Z,7.4
2018-02-21T00:19:11.705Z,7.5
2018-02-21T00:20:14.443Z,7.2
2018-02-21T00:21:17.899Z,6.7
2018-02-21T00:22:20.607Z,6.6
2018-02-21T00:23:23.709Z,6.2
2018-02-21T00:24:26.717Z,6.1
2018-02-21T00:25:29.470Z,5.9
2018-02-21T00:26:32.095Z,6.6
2018-02-21T00:27:34.753Z,6.4
2018-02-21T00:28:37.493Z,6.6
2018-02-21T00:29:41.839Z,6.7
2018-02-21T00:30:44.513Z,6.9
2018-02-21T00:31:47.995Z,6.9
2018-02-21T00:32:50.624Z,6.9
2018-02-21T00:33:53.293Z,6.8
2018-02-21T00:34:55.934Z,6.6
2018-02-21T00:35:58.633Z,6.6
2018-02-21T00:37:01.966Z,6.8
2018-02-21T00:38:04.696Z,6.9
2018-02-21T00:39:08.324Z,6.8
2018-02-21T00:40:11.295Z,6.7
2018-02-21T00:41:13.980Z,6.6
2018-02-21T00:42:16.625Z,6.6
2018-02-21T00:43:19.263Z,6.8
2018-02-21T00:44:22.005Z,6.6
2018-02-21T00:45:24.755Z,6.6
2018-02-21T00:46:27.418Z,7
2018-02-21T00:47:30.201Z,6.8
2018-02-21T00:48:32.885Z,6.6
2018-02-21T00:49:35.646Z,6.8
2018-02-21T00:50:38.410Z,6.5
2018-02-21T00:51:41.035Z,6.6
2018-02-21T00:52:43.632Z,6.4
2018-02-21T00:53:46.563Z,6.3
2018-02-21T00:54:49.394Z,6.5
2018-02-21T00:55:52.015Z,5.9
2018-02-21T00:56:54.790Z,5.9
2018-02-21T00:58:02.402Z,6.3
2018-02-21T00:59:05.111Z,6.3
2018-02-21T01:00:07.930Z,6.3
2018-02-21T01:01:10.721Z,6.2
2018-02-21T01:03:28.378Z,6
2018-02-21T01:04:31.024Z,6.2
2018-02-21T01:05:33.690Z,6.1
2018-02-21T01:06:36.416Z,5.7
2018-02-21T01:07:39.043Z,5.5
2018-02-21T01:08:41.729Z,5.4
2018-02-21T01:09:44.397Z,5.2
2018-02-21T01:10:47.312Z,5.5
2018-02-21T01:11:50.009Z,5.4
2018-02-21T01:12:52.743Z,5.5
2018-02-21T01:13:55.482Z,5.6
2018-02-21T01:14:58.087Z,5.3
2018-02-21T01:16:00.958Z,5.5
2018-02-21T01:17:04.357Z,5.4
2018-02-21T01:18:07.186Z,4.8
2018-02-21T01:19:09.926Z,5.2
2018-02-21T01:20:12.686Z,4.9
2018-02-21T01:21:15.363Z,5.2
2018-02-21T01:22:18.006Z,5.6
2018-02-21T01:23:20.602Z,5.3
2018-02-21T01:24:23.298Z,4.8
2018-02-21T01:25:25.966Z,4.9
2018-02-21T01:26:28.636Z,4.4
2018-02-21T01:27:31.273Z,4.7
2018-02-21T01:28:33.953Z,4.8
2018-02-21T01:29:36.552Z,5.3
2018-02-21T01:30:39.140Z,5.4
2018-02-21T01:31:41.811Z,5.3
2018-02-21T01:32:44.472Z,5.1
2018-02-21T01:33:47.197Z,4.9
2018-02-21T01:34:49.838Z,4.9
2018-02-21T01:35:53.543Z,4.7
2018-02-21T01:36:56.920Z,4.8
2018-02-21T01:39:08.833Z,5.2
2018-02-21T01:40:11.507Z,5.2
2018-02-21T01:41:14.388Z,5
2018-02-21T01:42:17.041Z,4.8
2018-02-21T01:43:19.858Z,4.6
2018-02-21T01:44:22.782Z,4.7
2018-02-21T01:45:25.628Z,5.1
2018-02-21T01:46:28.424Z,4.9
2018-02-21T01:47:31.200Z,4.8
2018-02-21T01:48:33.926Z,5.1
2018-02-21T01:49:37.265Z,5
2018-02-21T01:50:40.140Z,5
2018-02-21T01:51:42.854Z,5.2
2018-02-21T01:52:45.729Z,4.5
2018-02-21T01:53:48.419Z,4.6
2018-02-21T01:54:51.196Z,4.5
2018-02-21T01:55:53.885Z,4.7
2018-02-21T01:56:56.724Z,4.6
2018-02-21T01:59:08.438Z,4.8
2018-02-21T02:00:11.413Z,4.4
2018-02-21T02:01:14.083Z,3.8
2018-02-21T02:02:17.805Z,4.2
2018-02-21T02:03:27.372Z,4.3
2018-02-21T02:05:36.923Z,4
2018-02-21T02:06:39.798Z,3.9
2018-02-21T02:07:46.443Z,4.4
2018-02-21T02:08:49.367Z,3.7
2018-02-21T02:09:52.035Z,3.6
2018-02-21T02:10:54.777Z,3.9
2018-02-21T02:11:57.529Z,4
2018-02-21T02:13:00.250Z,3.7
2018-02-21T02:14:03.319Z,4
2018-02-21T02:15:06.113Z,3.6
2018-02-21T02:16:09.659Z,3.5
2018-02-21T02:17:15.330Z,3.4
2018-02-21T02:18:18.186Z,3.4
2018-02-21T02:19:21.068Z,3.2
2018-02-21T02:20:24.018Z,3.5
2018-02-21T02:21:27.050Z,3.4
2018-02-21T02:22:29.876Z,4
2018-02-21T02:23:32.524Z,3.7
2018-02-21T02:24:35.123Z,3.5
2018-02-21T02:25:38.287Z,3.3
2018-02-21T02:26:40.919Z,3.4
2018-02-21T02:27:43.526Z,3.8
2018-02-21T02:28:46.140Z,3.5
2018-02-21T02:29:49.081Z,3.7
2018-02-21T02:30:51.856Z,4
2018-02-21T02:31:54.438Z,3.9
2018-02-21T02:32:57.232Z,4
2018-02-21T02:34:00.030Z,4.1
2018-02-21T02:35:02.785Z,3.8
2018-02-21T02:36:05.601Z,3.8
2018-02-21T02:37:11.149Z,3.6
2018-02-21T02:38:14.634Z,3.5
2018-02-21T02:39:17.419Z,3.1
2018-02-21T02:40:20.075Z,3.1
2018-02-21T02:41:22.749Z,2.9
2018-02-21T02:42:25.632Z,2.7
2018-02-21T02:43:28.479Z,2.7
2018-02-21T02:44:31.880Z,2.8
2018-02-21T02:45:34.824Z,3
2018-02-21T02:46:37.457Z,2.8
2018-02-21T02:47:40.337Z,3
2018-02-21T02:48:43.036Z,3
2018-02-21T02:49:45.936Z,2.7
2018-02-21T02:50:48.811Z,3
2018-02-21T02:51:51.445Z,3
2018-02-21T02:52:55.435Z,3
2018-02-21T02:53:59.057Z,3.2
2018-02-21T02:55:01.834Z,3.2
2018-02-21T02:56:04.522Z,3.1
2018-02-21T02:57:07.216Z,3.1
2018-02-21T02:58:09.866Z,3.2
2018-02-21T02:59:17.529Z,3.3
2018-02-21T03:00:20.160Z,2.9
2018-02-21T03:01:27.184Z,3.2
2018-02-21T03:02:29.803Z,3.2
2018-02-21T03:03:32.468Z,2.5
2018-02-21T03:04:35.178Z,2.4
2018-02-21T03:05:37.793Z,2.5
2018-02-21T03:06:42.234Z,2.4
2018-02-21T03:07:44.851Z,2.8
2018-02-21T03:08:47.642Z,2.6
2018-02-21T03:09:50.264Z,2.5
2018-02-21T03:10:52.907Z,2.5
2018-02-21T03:11:55.564Z,2.6
2018-02-21T03:12:58.398Z,2.5
2018-02-21T03:14:01.210Z,2.5
2018-02-21T03:15:04.359Z,2.6
2018-02-21T03:16:07.101Z,2.9
2018-02-21T03:17:10.873Z,2.4
2018-02-21T03:18:14.167Z,2.3
2018-02-21T03:19:16.901Z,2.7
2018-02-21T03:20:19.526Z,2.6
2018-02-21T03:21:22.250Z,3
2018-02-21T03:22:24.925Z,3.3
2018-02-21T03:23:27.643Z,2.9
2018-02-21T03:24:30.352Z,3.1
2018-02-21T03:25:32.961Z,3.1
2018-02-21T03:26:35.818Z,2.8
2018-02-21T03:27:38.511Z,2.3
2018-02-21T03:28:41.083Z,2.4
2018-02-21T03:29:43.709Z,2.5
2018-02-21T03:30:51.537Z,2.5
2018-02-21T03:31:54.285Z,2.5
2018-02-21T03:32:57.062Z,2.6
2018-02-21T03:33:59.827Z,2.5
2018-02-21T03:35:02.633Z,2.7
2018-02-21T03:36:05.384Z,3
2018-02-21T03:37:08.165Z,2.8
2018-02-21T03:38:11.718Z,2.7
2018-02-21T03:39:14.501Z,2.5
2018-02-21T03:40:17.444Z,2.6
2018-02-21T03:41:20.286Z,2.6
2018-02-21T03:42:22.960Z,2.3
2018-02-21T03:43:25.632Z,2.2
2018-02-21T03:44:28.299Z,2.2
2018-02-21T03:45:31.058Z,2.1
2018-02-21T03:46:33.683Z,2.1
2018-02-21T03:47:36.252Z,2.6
2018-02-21T03:48:38.979Z,2.4
2018-02-21T03:49:42.571Z,2.2
2018-02-21T03:50:45.167Z,2.2
2018-02-21T03:51:47.923Z,2.2
2018-02-21T03:52:50.663Z,2
2018-02-21T03:53:53.373Z,2.3
2018-02-21T03:54:56.065Z,2.7
2018-02-21T03:55:58.710Z,2.7
2018-02-21T03:57:01.548Z,2.8
2018-02-21T03:58:04.242Z,3.1
2018-02-21T03:59:06.986Z,2.9
2018-02-21T04:00:09.829Z,2.9
2018-02-21T04:01:12.605Z,2.6
2018-02-21T04:02:15.752Z,2.8
2018-02-21T04:03:18.928Z,2.9
2018-02-21T04:04:21.705Z,2.7
2018-02-21T04:05:24.436Z,2.4
2018-02-21T04:06:27.269Z,2.7
2018-02-21T04:07:29.978Z,2.7
2018-02-21T04:08:32.709Z,2.3
2018-02-21T04:09:35.418Z,2.4
2018-02-21T04:10:38.218Z,2.5
2018-02-21T04:11:41.035Z,2.7
2018-02-21T04:12:43.799Z,2.5
2018-02-21T04:13:49.780Z,2.4
2018-02-21T04:14:53.478Z,2.1
2018-02-21T04:15:56.249Z,2.2
2018-02-21T04:16:59.081Z,2.2
2018-02-21T04:18:02.565Z,2.5
2018-02-21T04:19:05.351Z,2.6
2018-02-21T04:20:08.154Z,2.7
2018-02-21T04:21:10.849Z,2.5
2018-02-21T04:22:13.597Z,2.3
2018-02-21T04:23:16.369Z,1.8
2018-02-21T04:24:19.122Z,1.6
2018-02-21T04:25:21.816Z,1.6
2018-02-21T04:26:24.544Z,1.6
2018-02-21T04:27:27.329Z,1.7
2018-02-21T04:28:30.082Z,1.9
2018-02-21T04:29:32.762Z,1.8
2018-02-21T04:30:35.393Z,1.8
2018-02-21T04:31:38.250Z,1.8
2018-02-21T04:32:41.011Z,1.7
2018-02-21T04:33:43.678Z,1.7
2018-02-21T04:34:46.610Z,1.7
2018-02-21T04:35:49.832Z,1.7
2018-02-21T04:36:52.559Z,1.7
2018-02-21T04:37:55.225Z,1.7
2018-02-21T04:38:57.956Z,1.6
2018-02-21T04:40:00.744Z,1.6
2018-02-21T04:41:03.693Z,1.7
2018-02-21T04:42:06.430Z,1.4
2018-02-21T04:43:09.266Z,1.5
2018-02-21T04:44:11.968Z,1.5
2018-02-21T04:45:14.757Z,1.7
2018-02-21T04:46:17.616Z,1.9
2018-02-21T04:50:43.608Z,1.5
2018-02-21T04:51:46.486Z,2.1
2018-02-21T04:52:49.287Z,2.2
2018-02-21T04:53:52.028Z,2.3
2018-02-21T04:54:54.694Z,2.3
2018-02-21T04:55:57.343Z,2
2018-02-21T04:57:01.598Z,1.6
2018-02-21T08:41:08.870Z,15.6
2018-02-21T08:42:12.273Z,15.6
2018-02-21T08:43:15.745Z,15.7
2018-02-21T08:44:19.125Z,15.8
2018-02-21T08:45:22.403Z,15.7
2018-02-21T08:46:25.771Z,15.7
2018-02-21T08:47:28.741Z,15.7
2018-02-21T08:48:31.614Z,15.9
2018-02-21T08:49:35.175Z,15.9
2018-02-21T08:50:38.498Z,16.1
2018-02-21T08:51:41.496Z,16.2
2018-02-21T08:52:50.735Z,16.3
2018-02-21T08:53:53.574Z,16.3
2018-02-21T08:54:56.752Z,16.4
2018-02-21T08:56:00.740Z,16.3
2018-02-21T08:57:04.941Z,16.3
2018-02-21T08:58:08.042Z,16.4
2018-02-21T08:59:11.071Z,16.4
2018-02-21T09:00:14.010Z,16.4
2018-02-21T09:01:16.792Z,16.4
2018-02-21T09:02:20.011Z,16.3
2018-02-21T09:03:23.120Z,16.5
2018-02-21T09:04:26.118Z,16.5
2018-02-21T09:05:29.364Z,16.5
2018-02-21T09:06:32.502Z,16.4
2018-02-21T09:07:35.364Z,16.4
2018-02-21T09:08:38.327Z,16.4
2018-02-21T09:09:42.290Z,16.4
2018-02-21T09:10:46.190Z,16.3
2018-02-21T09:11:49.245Z,16.3
2018-02-21T09:12:52.180Z,16.2
2018-02-21T09:13:55.166Z,16.3
2018-02-21T09:14:58.087Z,16.3
2018-02-21T09:16:01.085Z,16.1
2018-02-21T09:17:04.001Z,16.1
2018-02-21T09:18:09.936Z,16.1
2018-02-21T09:19:12.974Z,16.2
2018-02-21T09:20:16.558Z,16.2
2018-02-21T09:21:27.845Z,16.1
2018-02-21T09:22:31.803Z,16.1
2018-02-21T09:23:34.790Z,16.1
2018-02-21T09:24:37.858Z,16.1
2018-02-21T09:25:40.987Z,16.1
2018-02-21T09:26:46.373Z,16.1
2018-02-21T09:27:51.875Z,16.1
2018-02-21T09:28:56.602Z,16.1
2018-02-21T09:29:59.759Z,16.3
2018-02-21T09:31:02.868Z,16.3
2018-02-21T09:32:06.013Z,16.2
2018-02-21T09:33:09.255Z,16.2
2018-02-21T09:34:12.282Z,16.3
2018-02-21T09:35:15.281Z,16.4
2018-02-21T09:36:18.331Z,16.3
2018-02-21T09:37:21.191Z,16.3
2018-02-21T09:38:29.074Z,16.2
2018-02-21T09:39:33.379Z,16.2
2018-02-21T09:40:40.180Z,16.2
2018-02-21T09:41:45.442Z,16.2
2018-02-21T09:42:58.329Z,16.1
2018-02-21T09:44:03.050Z,16.1
2018-02-21T09:45:07.445Z,16.2
2018-02-21T09:46:13.888Z,16.3
2018-02-21T09:47:18.930Z,16.2
2018-02-21T09:48:22.423Z,16.2
2018-02-21T09:49:29.372Z,16.3
2018-02-21T09:50:47.238Z,16.3
2018-02-21T09:51:50.593Z,16.4
2018-02-21T09:52:53.769Z,16.4
2018-02-21T09:53:56.866Z,16
2018-02-21T09:55:00.425Z,16.2
2018-02-21T09:56:04.811Z,16.2
2018-02-21T09:57:08.840Z,16.1
2018-02-21T09:58:11.875Z,16.1
2018-02-21T09:59:14.881Z,16.2
2018-02-21T10:00:22.569Z,16.2
2018-02-21T10:01:28.251Z,16.1
2018-02-21T10:02:32.243Z,16.2
2018-02-21T10:03:35.042Z,16.3
2018-02-21T10:04:38.312Z,16.4
2018-02-21T10:05:43.124Z,16.2
2018-02-21T10:06:45.898Z,16.2
2018-02-21T10:07:50.543Z,16.1
2018-02-21T10:08:54.549Z,16.3
2018-02-21T10:09:58.663Z,16.1
2018-02-21T10:11:01.710Z,16.1
2018-02-21T10:12:04.682Z,16.1
2018-02-21T10:13:07.636Z,15.9
2018-02-21T10:14:14.087Z,16
2018-02-21T10:15:17.232Z,16.1
2018-02-21T10:16:20.411Z,16.1
2018-02-21T10:17:24.096Z,16.1
2018-02-21T10:18:29.090Z,16.1
2018-02-21T10:19:34.533Z,16.2
2018-02-21T10:20:38.612Z,16.3
2018-02-21T10:21:42.508Z,16.2
2018-02-21T10:22:45.301Z,16.2
2018-02-21T10:23:51.201Z,16.2
2018-02-21T10:24:58.100Z,16.2
2018-02-21T10:26:01.199Z,16.2
2018-02-21T10:27:04.172Z,16.4
2018-02-21T10:28:09.597Z,16.3
2018-02-21T10:29:13.126Z,16.2
2018-02-21T10:30:17.068Z,16.3
2018-02-21T10:31:19.875Z,16.2
2018-02-21T10:32:22.983Z,16.2
2018-02-21T10:33:26.863Z,16.3
2018-02-21T10:34:29.892Z,16.3
2018-02-21T10:35:33.269Z,16.1
2018-02-21T10:36:36.914Z,16.4
2018-02-21T10:37:40.336Z,16.2
2018-02-21T10:38:43.104Z,16.4
2018-02-21T10:39:45.909Z,16.3
2018-02-21T10:40:49.392Z,16.2
2018-02-21T10:41:52.243Z,16.2
2018-02-21T10:42:57.589Z,16.4
2018-02-21T10:44:02.572Z,16.4
2018-02-21T10:45:07.325Z,16.4
2018-02-21T10:46:11.370Z,16.3
2018-02-21T10:47:14.922Z,16.3
2018-02-21T10:48:20.686Z,16.3
2018-02-21T10:49:25.278Z,16.3
2018-02-21T10:50:29.376Z,16.3
2018-02-21T10:51:33.182Z,16.3
2018-02-21T10:52:37.208Z,16.3
2018-02-21T10:53:45.998Z,16.1
2018-02-21T10:54:49.570Z,16.3
2018-02-21T10:55:52.268Z,16.2
2018-02-21T10:56:55.168Z,16.2
2018-02-21T10:57:57.876Z,16.4
2018-02-21T10:59:00.852Z,16.4
2018-02-21T11:00:04.171Z,16.4
2018-02-21T11:07:30.965Z,16.5
2018-02-21T11:08:35.477Z,16.5
2018-02-21T11:09:38.217Z,16.7
2018-02-21T11:10:41.432Z,16.6
2018-02-21T11:11:43.886Z,16.6
2018-02-21T11:12:47.344Z,16.6
2018-02-21T11:13:50.022Z,16.5
2018-02-21T11:14:52.634Z,16.4
2018-02-21T11:15:55.202Z,16.3
2018-02-21T11:16:57.783Z,16.5
2018-02-21T11:18:00.361Z,16.8
2018-02-21T11:19:03.035Z,16.7
2018-02-21T11:20:06.304Z,16.6
2018-02-21T11:21:08.800Z,16.9
2018-02-21T11:22:11.264Z,16.8
2018-02-21T11:23:14.419Z,16.6
2018-02-21T11:24:17.654Z,16.6
2018-02-21T11:25:20.325Z,16.6
2018-02-21T11:26:22.813Z,16.5
2018-02-21T11:27:25.371Z,16.6
2018-02-21T11:28:27.852Z,16.9
2018-02-21T11:29:30.742Z,16.7
2018-02-21T11:30:33.295Z,16.9
2018-02-21T11:31:35.872Z,16.7
2018-02-21T11:32:38.436Z,16.6
2018-02-21T11:33:41.037Z,16.7
2018-02-21T11:34:43.782Z,16.8
2018-02-21T11:35:46.776Z,16.8
2018-02-21T11:36:50.264Z,16.7
2018-02-21T11:37:53.204Z,16.6
2018-02-21T11:38:55.993Z,16.8
2018-02-21T11:39:59.026Z,16.7
2018-02-21T11:41:01.695Z,16.8
2018-02-21T11:42:04.488Z,16.8
2018-02-21T11:43:07.180Z,16.8
2018-02-21T11:44:09.853Z,16.6
2018-02-21T11:45:12.397Z,16.6
2018-02-21T11:46:15.320Z,16.7
2018-02-21T11:47:17.882Z,16.9
2018-02-21T11:48:20.519Z,16.7
2018-02-21T11:49:23.021Z,16.9
2018-02-21T11:50:25.664Z,16.9
2018-02-21T11:51:28.118Z,16.9
2018-02-21T11:52:31.178Z,16.9
2018-02-21T11:53:35.264Z,17.1
2018-02-21T11:54:37.891Z,17.1
2018-02-21T11:55:40.641Z,16.9
2018-02-21T11:56:43.254Z,16.9
2018-02-21T11:57:46.099Z,16.9
2018-02-21T11:58:48.715Z,17
2018-02-21T11:59:51.328Z,17
2018-02-21T12:00:54.677Z,16.9
2018-02-21T12:01:57.643Z,16.9
2018-02-21T12:03:00.251Z,16.9
2018-02-21T12:04:02.773Z,17
2018-02-21T12:05:05.274Z,16.9
2018-02-21T12:06:07.753Z,16.8
2018-02-21T12:07:10.361Z,16.9
2018-02-21T12:08:12.906Z,16.8
2018-02-21T12:09:15.440Z,17
2018-02-21T12:10:18.024Z,17.2
2018-02-21T12:12:34.215Z,17
2018-02-21T12:13:36.683Z,17
2018-02-21T12:14:39.112Z,17
2018-02-21T12:15:41.648Z,17.1
2018-02-21T12:16:51.977Z,17.2
2018-02-21T12:17:54.599Z,17.3
2018-02-21T12:18:57.151Z,17.1
2018-02-21T12:19:59.851Z,17.3
2018-02-21T12:21:02.410Z,17.1
2018-02-21T12:22:06.689Z,17
2018-02-21T12:23:10.903Z,17.1
2018-02-21T12:24:13.922Z,16.9
2018-02-21T12:25:16.818Z,16.9
2018-02-21T12:26:21.206Z,17
2018-02-21T12:27:23.831Z,17
2018-02-21T12:28:26.568Z,17.1
2018-02-21T12:29:29.198Z,17
2018-02-21T12:30:31.657Z,16.9
2018-02-21T12:31:34.278Z,17
2018-02-21T12:32:37.893Z,17
2018-02-21T12:33:40.419Z,17
2018-02-21T12:34:42.940Z,17
2018-02-21T12:35:45.743Z,17
2018-02-21T12:36:48.260Z,17.1
2018-02-21T12:37:50.984Z,17.3
2018-02-21T12:38:53.703Z,17.1
2018-02-21T12:39:56.279Z,17.2
2018-02-21T12:40:59.493Z,17.1
2018-02-21T12:42:02.231Z,17.1
2018-02-21T12:43:04.869Z,17
2018-02-21T12:44:07.371Z,17
2018-02-21T12:45:10.006Z,17.1
2018-02-21T12:46:12.872Z,17.1
2018-02-21T12:47:21.345Z,17.1
2018-02-21T12:48:28.398Z,17.3
2018-02-21T12:49:30.977Z,17.1
2018-02-21T12:50:33.467Z,17.1
2018-02-21T12:51:36.093Z,17.1
2018-02-21T12:52:38.584Z,17
2018-02-21T12:53:41.234Z,17.1
2018-02-21T12:54:44.411Z,17
2018-02-21T12:55:46.937Z,16.9
2018-02-21T12:56:49.448Z,17
2018-02-21T12:57:53.517Z,17
2018-02-21T12:58:56.405Z,17
2018-02-21T12:59:58.988Z,17.1
2018-02-21T13:01:01.775Z,17.1
2018-02-21T13:02:04.486Z,16.8
2018-02-21T13:03:07.051Z,16.9
2018-02-21T13:04:09.898Z,17
2018-02-21T13:05:12.606Z,17.1
2018-02-21T13:06:15.291Z,17.1
2018-02-21T13:07:20.126Z,17
2018-02-21T13:08:25.790Z,17
2018-02-21T13:09:28.419Z,17
2018-02-21T13:10:31.018Z,16.9
2018-02-21T13:11:33.520Z,17
2018-02-21T13:12:36.047Z,16.9
2018-02-21T13:13:38.559Z,16.9
2018-02-21T13:14:41.288Z,16.9
2018-02-21T13:15:51.732Z,17
2018-02-21T13:16:54.299Z,17
2018-02-21T13:17:57.130Z,17
2018-02-21T13:18:59.612Z,17
2018-02-21T13:20:02.303Z,16.9
2018-02-21T13:21:08.705Z,16.9
2018-02-21T13:22:11.359Z,17
2018-02-21T13:23:13.938Z,17.1
2018-02-21T13:24:17.206Z,17.1
2018-02-21T13:25:19.803Z,17.1
2018-02-21T13:26:22.581Z,17
2018-02-21T13:27:25.102Z,16.9
2018-02-21T13:28:27.667Z,16.9
2018-02-21T13:29:30.320Z,16.9
2018-02-21T13:30:32.889Z,17
2018-02-21T13:31:35.492Z,16.9
2018-02-21T13:32:38.101Z,17
2018-02-21T13:33:41.443Z,17
2018-02-21T13:34:43.970Z,16.9
2018-02-21T13:35:46.853Z,17
2018-02-21T13:36:49.405Z,17
2018-02-21T13:37:51.982Z,17.1
2018-02-21T13:38:54.483Z,17.1
2018-02-21T13:39:56.986Z,17.1
2018-02-21T13:40:59.507Z,17
2018-02-21T13:42:02.748Z,16.9
2018-02-21T13:43:05.219Z,17
2018-02-21T13:44:07.730Z,17
2018-02-21T13:45:10.258Z,16.9
2018-02-21T13:46:12.756Z,16.9
2018-02-21T13:47:15.238Z,16.9
2018-02-21T13:48:17.805Z,16.9
2018-02-21T13:49:21.033Z,16.8
2018-02-21T13:50:23.972Z,16.8
2018-02-21T13:51:28.903Z,16.8
2018-02-21T13:52:32.044Z,16.9
2018-02-21T13:53:34.692Z,17.1
2018-02-21T13:54:37.168Z,16.9
2018-02-21T13:55:40.440Z,17
2018-02-21T13:56:43.054Z,17
2018-02-21T13:57:45.609Z,16.9
2018-02-21T13:58:48.198Z,16.9
2018-02-21T13:59:51.522Z,16.9
2018-02-21T14:00:54.804Z,17
2018-02-21T14:01:57.512Z,17.1
2018-02-21T14:03:05.548Z,17
2018-02-21T14:04:10.408Z,17
2018-02-21T14:05:13.095Z,17
2018-02-21T14:06:15.612Z,17
2018-02-21T14:07:18.195Z,16.9
2018-02-21T14:08:21.008Z,16.8
2018-02-21T14:09:23.504Z,16.9
2018-02-21T14:10:26.016Z,17
2018-02-21T14:11:31.192Z,17
2018-02-21T14:12:33.869Z,17
2018-02-21T14:13:36.365Z,16.9
2018-02-21T14:14:38.824Z,16.9
2018-02-21T14:15:41.497Z,16.9
2018-02-21T14:16:44.014Z,16.9
2018-02-21T14:17:46.502Z,16.9
2018-02-21T14:18:49.012Z,17
2018-02-21T14:19:51.603Z,16.9
2018-02-21T14:20:54.362Z,16.8
2018-02-21T14:21:57.213Z,16.8
2018-02-21T14:22:59.803Z,16.8
2018-02-21T14:24:02.634Z,16.8
2018-02-21T14:25:05.201Z,16.8
2018-02-21T14:26:07.736Z,16.9
2018-02-21T14:27:10.460Z,16.9
2018-02-21T14:28:12.952Z,16.9
2018-02-21T14:29:15.667Z,17
2018-02-21T14:30:18.305Z,16.9
2018-02-21T14:31:21.062Z,16.9
2018-02-21T14:32:23.725Z,16.9
2018-02-21T14:33:26.925Z,16.9
2018-02-21T14:34:30.005Z,17
2018-02-21T14:35:34.597Z,16.9
2018-02-21T14:36:37.159Z,16.9
2018-02-21T14:37:39.782Z,16.9
2018-02-21T14:38:42.497Z,16.9
2018-02-21T14:39:45.030Z,17
2018-02-21T14:40:47.690Z,17
2018-02-21T14:41:50.651Z,16.9
2018-02-21T14:42:53.481Z,16.9
2018-02-21T14:43:57.309Z,17
2018-02-21T14:45:00.142Z,17
2018-02-21T14:46:03.121Z,16.9
2018-02-21T14:47:05.802Z,16.6
2018-02-21T14:48:10.729Z,16.7
2018-02-21T14:49:14.108Z,16.7
2018-02-21T14:50:16.625Z,16.6
2018-02-21T14:51:21.069Z,16.7
2018-02-21T14:52:32.715Z,16.5
2018-02-21T14:53:37.095Z,16.6
2018-02-21T14:54:39.718Z,16.7
2018-02-21T14:55:42.856Z,16.8
2018-02-21T14:56:45.326Z,16.9
2018-02-21T14:57:48.476Z,16.9
2018-02-21T14:58:51.829Z,16.8
2018-02-21T14:59:59.736Z,16.7
2018-02-21T15:01:09.368Z,16.7
2018-02-21T15:03:30.262Z,16.6
2018-02-21T15:04:33.844Z,16.6
2018-02-21T15:05:36.856Z,16.6
2018-02-21T15:06:39.337Z,16.6
2018-02-21T15:07:41.961Z,16.7
2018-02-21T15:08:44.621Z,16.7
2018-02-21T15:09:47.162Z,16.7
2018-02-21T15:10:49.760Z,16.7
2018-02-21T15:11:53.406Z,16.6
2018-02-21T15:12:55.940Z,16.7
2018-02-21T15:13:58.840Z,16.6
2018-02-21T15:15:01.494Z,16.6
2018-02-21T15:16:04.734Z,16.5
2018-02-21T15:17:07.423Z,16.6
2018-02-21T15:18:10.011Z,16.6
2018-02-21T15:19:12.734Z,16.6
2018-02-21T15:20:15.527Z,16.5
2018-02-21T15:21:19.070Z,16.6
2018-02-21T15:22:21.746Z,16.5
2018-02-21T15:23:24.358Z,16.5
2018-02-21T15:24:27.099Z,16.5
2018-02-21T15:25:30.036Z,16.5
2018-02-21T15:26:32.815Z,16.5
2018-02-21T15:27:35.338Z,16.5
2018-02-21T15:28:37.977Z,16.5
2018-02-21T15:29:40.548Z,16.4
2018-02-21T15:30:43.115Z,16.4
2018-02-21T15:31:45.643Z,16.5
2018-02-21T15:32:48.210Z,16.4
2018-02-21T15:33:50.972Z,16.5
2018-02-21T15:34:53.454Z,16.4
2018-02-21T15:35:55.923Z,16.4
2018-02-21T15:37:04.450Z,16.3
2018-02-21T15:38:07.391Z,16.4
2018-02-21T15:39:09.930Z,16.4
2018-02-21T15:40:13.306Z,16.4
2018-02-21T15:41:15.986Z,16.5
2018-02-21T15:42:18.471Z,16.5
2018-02-21T15:43:21.023Z,16.4
2018-02-21T15:44:23.569Z,16.4
2018-02-21T15:45:26.065Z,16.3
2018-02-21T15:46:28.661Z,16.4
2018-02-21T15:47:31.285Z,16.4
2018-02-21T15:48:33.731Z,16.5
2018-02-21T15:49:36.337Z,16.5
2018-02-21T15:50:39.089Z,16.4
2018-02-21T15:51:41.619Z,16.4
2018-02-21T15:52:44.082Z,16.3
2018-02-21T15:53:46.674Z,16.4
2018-02-21T15:54:49.243Z,16.5
2018-02-21T15:55:51.789Z,16.4
2018-02-21T15:56:54.378Z,16.4
2018-02-21T15:57:57.043Z,16.5
2018-02-21T15:58:59.665Z,16.5
2018-02-21T16:00:02.353Z,16.5
2018-02-21T16:01:04.950Z,16.4
2018-02-21T16:02:07.692Z,16.4
2018-02-21T16:03:10.244Z,16.3
2018-02-21T16:04:12.854Z,16.5
2018-02-21T16:05:15.379Z,16.4
2018-02-21T16:06:19.625Z,16.4
2018-02-21T16:07:22.316Z,16.3
2018-02-21T16:08:28.157Z,16.4
2018-02-21T16:09:31.638Z,16.4
2018-02-21T16:11:46.341Z,16.4
2018-02-21T16:12:50.314Z,16.6
2018-02-21T16:13:53.783Z,16.5
2018-02-21T16:14:58.068Z,16.6
2018-02-21T16:16:00.788Z,16.6
2018-02-21T16:17:03.566Z,16.7
2018-02-21T16:18:06.870Z,16.7
2018-02-21T16:19:09.529Z,16.6
2018-02-21T16:20:12.293Z,16.6
2018-02-21T16:21:14.781Z,16.5
2018-02-21T16:22:17.994Z,16.4
2018-02-21T16:23:20.766Z,16.4
2018-02-21T16:24:23.405Z,16.5
2018-02-21T16:25:25.946Z,16.5
2018-02-21T16:26:28.638Z,16.5
2018-02-21T16:27:32.823Z,16.7
2018-02-21T16:28:35.642Z,16.6
2018-02-21T16:29:38.322Z,16.6
2018-02-21T16:30:40.882Z,16.5
2018-02-21T16:31:44.345Z,16.5
2018-02-21T16:32:46.991Z,16.6
2018-02-21T16:33:49.746Z,16.5
2018-02-21T16:34:52.700Z,16.4
2018-02-21T16:35:55.373Z,16.4
2018-02-21T16:36:58.033Z,16.3
2018-02-21T16:38:00.836Z,16.4
2018-02-21T16:39:09.398Z,16.4
2018-02-21T16:40:11.944Z,16.4
2018-02-21T16:41:14.555Z,16.4
2018-02-21T16:42:17.135Z,16.4
2018-02-21T16:43:19.778Z,16.3
2018-02-21T16:44:23.931Z,16.2
2018-02-21T16:45:28.022Z,16.3
2018-02-21T16:46:31.948Z,15.9
2018-02-21T16:47:35.352Z,15.9
2018-02-21T16:48:37.949Z,16.2
2018-02-21T16:49:40.514Z,16.1
2018-02-21T16:50:43.174Z,16
2018-02-21T16:51:47.439Z,15.8
2018-02-21T16:52:50.023Z,15.8
2018-02-21T16:53:52.668Z,15.8
2018-02-21T16:54:55.236Z,15.6
2018-02-21T16:55:58.033Z,15.9
2018-02-21T16:57:00.665Z,15.7
2018-02-21T16:58:03.489Z,15.7
2018-02-21T16:59:06.017Z,15.7
2018-02-21T17:00:08.541Z,15.7
2018-02-21T17:01:11.234Z,15.6
2018-02-21T17:02:13.966Z,15.5
2018-02-21T17:03:16.609Z,15.6
2018-02-21T17:04:19.191Z,15.6
2018-02-21T17:05:22.396Z,15.5
2018-02-21T17:06:25.087Z,15.4
2018-02-21T17:07:28.182Z,15.4
2018-02-21T17:08:30.660Z,15.7
2018-02-21T17:09:33.391Z,15.6
2018-02-21T17:10:35.970Z,15.6
2018-02-21T17:11:38.483Z,15.6
2018-02-21T17:12:41.700Z,15.6
2018-02-21T17:13:44.403Z,15.6
2018-02-21T17:14:46.935Z,15.4
2018-02-21T17:15:49.461Z,15.4
2018-02-21T17:16:52.337Z,15.3
2018-02-21T17:17:54.926Z,15.5
2018-02-21T17:18:57.501Z,15.3
2018-02-21T17:20:00.689Z,15.5
2018-02-21T17:21:03.394Z,15.4
2018-02-21T17:22:06.211Z,15.5
2018-02-21T17:23:08.813Z,15.4
2018-02-21T17:24:11.533Z,15.3
2018-02-21T17:25:14.075Z,15.3
2018-02-21T17:26:16.690Z,14.9
2018-02-21T17:27:19.260Z,15.1
2018-02-21T17:28:22.585Z,14.9
2018-02-21T17:29:27.119Z,14.8
2018-02-21T17:30:30.008Z,14.8
2018-02-21T17:31:34.537Z,15.1
2018-02-21T17:32:37.162Z,15.1
2018-02-21T17:33:39.697Z,15.1
2018-02-21T17:34:42.318Z,15.1
2018-02-21T17:35:44.825Z,15.1
2018-02-21T17:36:48.541Z,14.9
2018-02-21T17:37:51.478Z,14.9
2018-02-21T17:38:54.011Z,14.9
2018-02-21T17:39:56.625Z,14.8
2018-02-21T17:40:59.155Z,14.9
2018-02-21T17:42:05.554Z,14.9
2018-02-21T17:43:08.217Z,15
2018-02-21T17:44:11.072Z,14.9
2018-02-21T17:45:13.676Z,14.9
2018-02-21T17:46:17.538Z,14.9
2018-02-21T17:47:20.377Z,15
2018-02-21T17:48:24.072Z,15
2018-02-21T17:49:26.996Z,15.1
2018-02-21T17:50:33.330Z,15.1
2018-02-21T17:51:36.464Z,15.1
2018-02-21T17:52:48.453Z,15
2018-02-21T17:53:51.238Z,15.1
2018-02-21T17:54:53.881Z,15.2
2018-02-21T17:55:56.927Z,15.5
2018-02-21T17:56:59.441Z,15.6
2018-02-21T17:58:02.171Z,15.7
2018-02-21T17:59:04.736Z,15.6
2018-02-21T18:00:07.231Z,15.6
2018-02-21T18:01:10.480Z,15.6
2018-02-21T18:02:13.196Z,15.7
2018-02-21T18:03:15.685Z,15.9
2018-02-21T18:04:18.331Z,16
2018-02-21T18:05:20.842Z,16.1
2018-02-21T18:06:23.612Z,16.2
2018-02-21T18:07:26.362Z,16.5
2018-02-21T18:08:28.942Z,16.5
2018-02-21T18:09:31.684Z,16.6
2018-02-21T18:10:34.250Z,16.3
2018-02-21T18:11:36.750Z,16.5
2018-02-21T18:12:40.096Z,16.5
2018-02-21T18:13:45.943Z,16.5
2018-02-21T18:14:48.693Z,16.6
2018-02-21T18:15:51.689Z,16.7
2018-02-21T18:16:55.313Z,16.8
2018-02-21T18:17:57.986Z,16.8